Jiu Hua San — 9VBK2 — position and weather

sailwx.info

Track history (hours):
 
Tides and Currents Weather Stations Pressure Air Temp Water Temp Dewpoint Dewpoint Depression Visibility Wind Speed Wind Dir Waves Ship Positions

Jiu Hua San

Last reported at 2018-Feb-15 12:36 UTC. Time now 2018-Feb-24 08:42 UTC.
Position N 01°22' E 103°14'.
Warning: this ship's position is 8 days out of date.

Length 333 m; draft 11.3 m.

Type: Ship. MMSI: 565914000.

Date/timePositionNaut miles runAvg speedWind from/ knotsBaromVisibWave heightAir tempDewpointWater temp
2018-Feb-15 12:36N 01°22' E 103°14'1 8.3
2018-Feb-15 12:30N 01°21' E 103°15'4 8.4
2018-Feb-15 11:59N 01°19' E 103°18'4 9.3
2018-Feb-15 11:30N 01°16' E 103°22'714.1
2018-Feb-15 11:00N 01°13' E 103°28'510.6
2018-Feb-15 10:31N 01°13' E 103°33'2 5.0
2018-Feb-15 10:01N 01°14' E 103°35'0 0.6
2018-Feb-15 09:16N 01°14' E 103°36'0 0.2
2018-Feb-15 08:16N 01°14' E 103°36'0 0.0
2018-Feb-15 07:46N 01°14' E 103°36'0 0.0
2018-Feb-15 05:19N 01°14' E 103°36'0 0.2
2018-Feb-15 04:55N 01°14' E 103°36'0 0.1
2018-Feb-15 04:22N 01°14' E 103°36'0 0.1
2018-Feb-15 03:52N 01°14' E 103°36'0 0.1
2018-Feb-15 03:10N 01°14' E 103°36'0 0.1
2018-Feb-15 01:15N 01°14' E 103°36'0 0.1
2018-Feb-15 01:00N 01°14' E 103°36'0 0.1
2018-Feb-15 00:30N 01°14' E 103°36'0 0.6
2018-Feb-14 23:57N 01°14' E 103°35'1 2.7
2018-Feb-14 23:29N 01°14' E 103°34'3 5.5
2018-Feb-14 23:00N 01°12' E 103°35'4 7.1
2018-Feb-14 22:30N 01°11' E 103°39'4 8.1
2018-Feb-14 22:00N 01°09' E 103°42'510.1
2018-Feb-14 21:30N 01°10' E 103°47'611.7
2018-Feb-14 21:00N 01°12' E 103°52'612.3
2018-Feb-14 20:30N 01°15' E 103°58'511.2
2018-Feb-14 20:00N 01°16' E 104°04'812.1
2018-Feb-14 19:22N 01°17' E 104°11'  
Track history (hours):
 
Tides and Currents Weather Stations Pressure Air Temp Water Temp Dewpoint Dewpoint Depression Visibility Wind Speed Wind Dir Waves Ship Positions

Jiu Hua San

Last reported at 2018-Feb-15 12:36 UTC. Time now 2018-Feb-24 08:42 UTC.
Position N 01°22' E 103°14'.
Warning: this ship's position is 8 days out of date.

Length 333 m; draft 11.3 m.

Type: Ship. MMSI: 565914000.

Date/timePositionNaut miles runAvg speedWind from/ knotsBaromVisibWave heightAir tempDewpointWater temp
2018-Feb-15 12:36N 01°22' E 103°14'1 8.3
2018-Feb-15 12:30N 01°21' E 103°15'4 8.4
2018-Feb-15 11:59N 01°19' E 103°18'4 9.3
2018-Feb-15 11:30N 01°16' E 103°22'714.1
2018-Feb-15 11:00N 01°13' E 103°28'510.6
2018-Feb-15 10:31N 01°13' E 103°33'2 5.0
2018-Feb-15 10:01N 01°14' E 103°35'0 0.6
2018-Feb-15 09:16N 01°14' E 103°36'0 0.2
2018-Feb-15 08:16N 01°14' E 103°36'0 0.0
2018-Feb-15 07:46N 01°14' E 103°36'0 0.0
2018-Feb-15 05:19N 01°14' E 103°36'0 0.2
2018-Feb-15 04:55N 01°14' E 103°36'0 0.1
2018-Feb-15 04:22N 01°14' E 103°36'0 0.1
2018-Feb-15 03:52N 01°14' E 103°36'0 0.1
2018-Feb-15 03:10N 01°14' E 103°36'0 0.1
2018-Feb-15 01:15N 01°14' E 103°36'0 0.1
2018-Feb-15 01:00N 01°14' E 103°36'0 0.1
2018-Feb-15 00:30N 01°14' E 103°36'0 0.6
2018-Feb-14 23:57N 01°14' E 103°35'1 2.7
2018-Feb-14 23:29N 01°14' E 103°34'3 5.5
2018-Feb-14 23:00N 01°12' E 103°35'4 7.1
2018-Feb-14 22:30N 01°11' E 103°39'4 8.1
2018-Feb-14 22:00N 01°09' E 103°42'510.1
2018-Feb-14 21:30N 01°10' E 103°47'611.7
2018-Feb-14 21:00N 01°12' E 103°52'612.3
2018-Feb-14 20:30N 01°15' E 103°58'511.2
2018-Feb-14 20:00N 01°16' E 104°04'812.1
2018-Feb-14 19:22N 01°17' E 104°11'  

Dump ship's entire track history